createdAt,value
2023-03-05T00:00:20.729Z,96922.72
2023-03-05T00:02:47.242Z,96913.06
2023-03-05T00:05:13.733Z,96912.94
2023-03-05T00:07:41.569Z,96917.50
2023-03-05T00:10:08.445Z,96916.22
2023-03-05T00:12:34.981Z,96909.72
2023-03-05T00:15:03.689Z,96911.97
2023-03-05T00:17:30.330Z,96898.78
2023-03-05T00:19:59.295Z,96909.63
2023-03-05T00:22:29.842Z,96904.81
2023-03-05T00:24:56.360Z,96910.22
2023-03-05T00:27:22.838Z,96911.63
2023-03-05T00:29:49.656Z,96905.25
2023-03-05T00:32:16.171Z,96903.84
2023-03-05T00:34:49.974Z,96894.19
2023-03-05T00:37:17.232Z,96891.59
2023-03-05T00:39:43.673Z,96896.56
2023-03-05T00:42:10.285Z,96891.59
2023-03-05T00:44:36.775Z,96888.44
2023-03-05T00:47:03.194Z,96882.66
2023-03-05T00:49:29.650Z,96889.13
2023-03-05T00:51:56.049Z,96886.53
2023-03-05T00:54:22.675Z,96883.59
2023-03-05T00:56:49.685Z,96886.19
2023-03-05T00:59:16.237Z,96883.19
2023-03-05T01:01:42.722Z,96880.03
2023-03-05T01:04:09.475Z,96881.84
2023-03-05T01:06:36.002Z,96870.75
2023-03-05T01:09:02.667Z,96872.53
2023-03-05T01:11:29.170Z,96866.16
2023-03-05T01:13:55.627Z,96862.84
2023-03-05T01:16:22.656Z,96861.91
2023-03-05T01:18:49.159Z,96862.41
2023-03-05T01:21:15.611Z,96860.75
2023-03-05T01:23:42.081Z,96854.41
2023-03-05T01:26:09.555Z,96852.97
2023-03-05T01:28:36.886Z,96852.16
2023-03-05T01:31:07.682Z,96849.44
2023-03-05T01:33:34.272Z,96843.56
2023-03-05T01:36:01.029Z,96852.38
2023-03-05T01:38:27.492Z,96838.72
2023-03-05T01:40:53.899Z,96844.63
2023-03-05T01:43:25.282Z,96841.91
2023-03-05T01:46:19.870Z,96841.19
2023-03-05T01:48:50.180Z,96840.00
2023-03-05T01:51:19.250Z,96832.94
2023-03-05T01:53:47.073Z,96838.59
2023-03-05T01:56:13.549Z,96841.78
2023-03-05T01:58:40.377Z,96833.19
2023-03-05T02:01:06.976Z,96831.78
2023-03-05T02:03:34.517Z,96832.25
2023-03-05T02:06:00.925Z,96827.06
2023-03-05T02:08:27.379Z,96829.31
2023-03-05T02:10:56.382Z,96823.75
2023-03-05T02:13:25.497Z,96822.38
2023-03-05T02:15:55.679Z,96825.53
2023-03-05T02:18:22.523Z,96819.53
2023-03-05T02:20:56.426Z,96818.47
2023-03-05T02:23:33.759Z,96812.59
2023-03-05T02:26:00.168Z,96813.53
2023-03-05T02:28:32.673Z,96810.09
2023-03-05T02:30:59.510Z,96806.81
2023-03-05T02:33:26.206Z,96813.06
2023-03-05T02:35:52.900Z,96800.94
2023-03-05T02:38:21.188Z,96799.97
2023-03-05T02:40:47.743Z,96798.91
2023-03-05T02:43:14.433Z,96786.22
2023-03-05T02:45:41.010Z,96795.97
2023-03-05T02:48:08.010Z,96795.72
2023-03-05T02:50:34.809Z,96785.22
2023-03-05T02:53:02.694Z,96784.88
2023-03-05T02:55:29.148Z,96789.81
2023-03-05T02:57:55.621Z,96786.53
2023-03-05T03:00:23.490Z,96785.34
2023-03-05T03:02:50.041Z,96788.75
2023-03-05T03:05:16.645Z,96783.97
2023-03-05T03:07:43.065Z,96781.81
2023-03-05T03:10:10.359Z,96776.66
2023-03-05T03:12:41.620Z,96780.09
2023-03-05T03:15:09.964Z,96770.63
2023-03-05T03:17:37.973Z,96771.69
2023-03-05T03:20:06.786Z,96771.22
2023-03-05T03:22:33.590Z,96764.63
2023-03-05T03:25:01.273Z,96769.81
2023-03-05T03:27:27.777Z,96767.09
2023-03-05T03:29:54.250Z,96755.31
2023-03-05T03:32:21.876Z,96760.38
2023-03-05T03:34:48.363Z,96762.63
2023-03-05T03:37:15.298Z,96763.09
2023-03-05T03:39:41.767Z,96750.06
2023-03-05T03:42:08.234Z,96753.72
2023-03-05T03:44:34.791Z,96752.75
2023-03-05T03:47:01.233Z,96754.03
2023-03-05T03:49:28.676Z,96753.25
2023-03-05T03:51:55.584Z,96750.78
2023-03-05T03:54:22.638Z,96754.06
2023-03-05T03:56:49.045Z,96758.44
2023-03-05T03:59:16.762Z,96754.06
2023-03-05T04:01:43.475Z,96751.13
2023-03-05T04:04:11.595Z,96749.13
2023-03-05T04:06:38.514Z,96747.13
2023-03-05T04:09:05.670Z,96744.66
2023-03-05T04:11:32.204Z,96752.22
2023-03-05T04:13:58.681Z,96748.31
2023-03-05T04:16:25.290Z,96746.78
2023-03-05T04:18:52.220Z,96748.03
2023-03-05T04:21:18.893Z,96745.00
2023-03-05T04:23:46.481Z,96749.69
2023-03-05T04:26:13.154Z,96741.09
2023-03-05T04:28:39.630Z,96743.69
2023-03-05T04:31:06.164Z,96733.56
2023-03-05T04:33:33.963Z,96736.38
2023-03-05T04:36:00.691Z,96739.25
2023-03-05T04:38:27.284Z,96733.22
2023-03-05T04:40:53.696Z,96741.22
2023-03-05T04:43:20.255Z,96739.69
2023-03-05T04:45:46.775Z,96742.97
2023-03-05T04:48:13.323Z,96730.75
2023-03-05T04:50:40.907Z,96730.75
2023-03-05T04:53:07.438Z,96730.41
2023-03-05T04:55:34.031Z,96734.03
2023-03-05T04:58:00.509Z,96728.16
2023-03-05T05:00:27.084Z,96716.38
2023-03-05T05:02:53.772Z,96726.84
2023-03-05T05:05:28.886Z,96727.44
2023-03-05T05:07:58.022Z,96723.16
2023-03-05T05:10:26.792Z,96729.56
2023-03-05T05:12:53.445Z,96721.78
2023-03-05T05:15:20.316Z,96722.16
2023-03-05T05:17:47.387Z,96720.16
2023-03-05T05:20:15.583Z,96718.28
2023-03-05T05:22:42.519Z,96708.03
2023-03-05T05:25:10.488Z,96717.78
2023-03-05T05:27:39.153Z,96718.03
2023-03-05T05:30:06.329Z,96717.34
2023-03-05T05:32:32.878Z,96722.25
2023-03-05T05:34:59.891Z,96725.19
2023-03-05T05:37:26.872Z,96715.44
2023-03-05T05:39:54.444Z,96722.25
2023-03-05T05:42:23.911Z,96721.22
2023-03-05T05:44:51.446Z,96740.28
2023-03-05T05:47:18.336Z,96730.03
2023-03-05T05:49:45.895Z,96727.44
2023-03-05T05:52:13.418Z,96718.97
2023-03-05T05:54:40.166Z,96722.75
2023-03-05T05:57:09.842Z,96722.97
2023-03-05T05:59:37.427Z,96730.75
2023-03-05T06:02:04.652Z,96723.88
2023-03-05T06:04:31.165Z,96733.41
2023-03-05T06:06:58.669Z,96734.03
2023-03-05T06:09:25.410Z,96721.78
2023-03-05T06:11:52.146Z,96733.09
2023-03-05T06:14:18.725Z,96733.59
2023-03-05T06:16:45.256Z,96732.88
2023-03-05T06:19:13.012Z,96731.59
2023-03-05T06:21:39.754Z,96737.13
2023-03-05T06:24:06.837Z,96734.34
2023-03-05T06:26:33.605Z,96735.03
2023-03-05T06:29:00.397Z,96732.75
2023-03-05T06:31:28.977Z,96736.75
2023-03-05T06:34:01.300Z,96739.81
2023-03-05T06:36:28.398Z,96735.13
2023-03-05T06:38:56.316Z,96739.50
2023-03-05T06:41:26.334Z,96731.84
2023-03-05T06:43:53.360Z,96738.53
2023-03-05T06:46:27.132Z,96730.41
2023-03-05T06:48:58.056Z,96737.72
2023-03-05T06:51:27.502Z,96744.19
2023-03-05T06:53:54.651Z,96733.25
2023-03-05T06:56:23.263Z,96734.75
2023-03-05T06:58:51.126Z,96736.16
2023-03-05T07:01:18.359Z,96736.03
2023-03-05T07:03:44.901Z,96733.94
2023-03-05T07:06:14.416Z,96732.41
2023-03-05T07:08:43.594Z,96738.28
2023-03-05T07:11:18.461Z,96731.66
2023-03-05T07:13:47.916Z,96735.53
2023-03-05T07:16:17.883Z,96731.44
2023-03-05T07:18:51.148Z,96741.78
2023-03-05T07:21:23.413Z,96740.56
2023-03-05T07:23:50.461Z,96726.13
2023-03-05T07:26:17.367Z,96727.19
2023-03-05T07:28:44.230Z,96722.81
2023-03-05T07:31:17.872Z,96724.09
2023-03-05T07:33:44.914Z,96725.56
2023-03-05T07:36:12.433Z,96721.56
2023-03-05T07:38:39.232Z,96722.50
2023-03-05T07:41:08.167Z,96723.75
2023-03-05T07:43:35.775Z,96723.59
2023-03-05T07:46:08.206Z,96718.50
2023-03-05T07:48:35.015Z,96713.13
2023-03-05T07:51:10.723Z,96712.91
2023-03-05T07:53:37.306Z,96709.13
2023-03-05T07:56:04.139Z,96709.34
2023-03-05T07:58:30.949Z,96706.41
2023-03-05T08:00:57.402Z,96703.22
2023-03-05T08:03:24.418Z,96710.84
2023-03-05T08:05:50.932Z,96706.03
2023-03-05T08:08:17.645Z,96712.19
2023-03-05T08:10:44.418Z,96713.38
2023-03-05T08:13:10.985Z,96707.00
2023-03-05T08:15:38.015Z,96703.00
2023-03-05T08:18:04.858Z,96705.66
2023-03-05T08:20:35.784Z,96715.53
2023-03-05T08:23:03.370Z,96712.25
2023-03-05T08:25:29.768Z,96713.06
2023-03-05T08:27:57.173Z,96712.50
2023-03-05T08:30:27.126Z,96718.25
2023-03-05T08:32:54.726Z,96712.50
2023-03-05T08:35:21.397Z,96711.53
2023-03-05T08:37:48.207Z,96706.31
2023-03-05T08:40:18.060Z,96709.09
2023-03-05T08:42:44.593Z,96700.50
2023-03-05T08:45:11.818Z,96698.66
2023-03-05T08:47:38.269Z,96709.84
2023-03-05T08:50:05.073Z,96704.50
2023-03-05T08:52:31.637Z,96694.47
2023-03-05T08:54:58.178Z,96702.47
2023-03-05T08:57:24.650Z,96699.09
2023-03-05T08:59:51.068Z,96691.97
2023-03-05T09:02:18.604Z,96689.03
2023-03-05T09:04:45.096Z,96679.44
2023-03-05T09:07:11.627Z,96683.28
2023-03-05T09:09:46.168Z,96688.00
2023-03-05T09:12:13.393Z,96688.50
2023-03-05T09:14:41.255Z,96686.34
2023-03-05T09:17:09.054Z,96679.44
2023-03-05T09:19:41.524Z,96680.13
2023-03-05T09:22:07.931Z,96674.75
2023-03-05T09:24:34.373Z,96676.72
2023-03-05T09:27:01.993Z,96675.97
2023-03-05T09:29:30.947Z,96671.47
2023-03-05T09:31:57.546Z,96676.91
2023-03-05T09:34:24.159Z,96670.53
2023-03-05T09:36:50.640Z,96668.69
2023-03-05T09:39:17.338Z,96661.66
2023-03-05T09:42:10.217Z,96670.41
2023-03-05T09:45:11.342Z,96666.91
2023-03-05T09:47:59.699Z,96667.19
2023-03-05T09:50:38.076Z,96656.03
2023-03-05T09:53:26.470Z,96669.69
2023-03-05T09:55:57.809Z,96666.28
2023-03-05T09:58:46.464Z,96669.66
2023-03-05T10:01:19.882Z,96663.53
2023-03-05T10:04:27.585Z,96665.63
2023-03-05T10:07:04.284Z,96663.16
2023-03-05T10:09:51.575Z,96654.88
2023-03-05T10:12:38.936Z,96661.09
2023-03-05T10:15:12.598Z,96653.38
2023-03-05T10:18:01.421Z,96658.41
2023-03-05T10:20:37.060Z,96654.34
2023-03-05T10:23:24.765Z,96647.03
2023-03-05T10:26:06.262Z,96641.94
2023-03-05T10:28:53.957Z,96650.16
2023-03-05T10:31:58.720Z,96645.75
2023-03-05T10:34:46.247Z,96642.19
2023-03-05T10:37:47.135Z,96630.19
2023-03-05T10:40:45.954Z,96633.16
2023-03-05T10:43:24.222Z,96628.81
2023-03-05T10:45:53.801Z,96629.91
2023-03-05T10:48:58.751Z,96628.75
2023-03-05T10:51:48.362Z,96625.78
2023-03-05T10:54:30.980Z,96626.16
2023-03-05T10:57:13.054Z,96620.72
2023-03-05T10:59:44.001Z,96620.81
2023-03-05T11:02:10.518Z,96613.84
2023-03-05T11:04:39.837Z,96605.31
2023-03-05T11:07:30.308Z,96605.84
2023-03-05T11:10:15.930Z,96597.47
2023-03-05T11:12:42.630Z,96592.06
2023-03-05T11:15:10.166Z,96591.47
2023-03-05T11:17:38.636Z,96591.78
2023-03-05T11:20:30.147Z,96587.00
2023-03-05T11:23:24.516Z,96584.81
2023-03-05T11:26:15.738Z,96585.53
2023-03-05T11:29:00.497Z,96572.41
2023-03-05T11:31:32.272Z,96571.19
2023-03-05T11:34:00.202Z,96567.31
2023-03-05T11:36:34.246Z,96566.94
2023-03-05T11:39:18.207Z,96551.56
2023-03-05T11:41:58.047Z,96554.88
2023-03-05T11:44:28.985Z,96556.81
2023-03-05T11:47:18.238Z,96550.66
2023-03-05T11:49:52.226Z,96548.34
2023-03-05T11:52:25.978Z,96547.22
2023-03-05T11:55:02.926Z,96542.75
2023-03-05T11:57:35.292Z,96535.22
2023-03-05T12:00:08.617Z,96532.72
2023-03-05T12:02:35.179Z,96522.22
2023-03-05T12:05:03.386Z,96525.91
2023-03-05T12:07:39.687Z,96518.66
2023-03-05T12:10:06.935Z,96522.34
2023-03-05T12:12:59.630Z,96519.03
2023-03-05T12:15:47.752Z,96510.00
2023-03-05T12:18:46.219Z,96517.13
2023-03-05T12:21:34.601Z,96509.34
2023-03-05T12:24:03.857Z,96505.91
2023-03-05T12:27:02.228Z,96505.63
2023-03-05T12:29:37.731Z,96501.28
2023-03-05T12:32:23.319Z,96496.38
2023-03-05T12:35:15.456Z,96489.25
2023-03-05T12:37:46.739Z,96489.69
2023-03-05T12:40:26.356Z,96490.38
2023-03-05T12:42:55.035Z,96483.38
2023-03-05T12:45:29.689Z,96479.53
2023-03-05T12:47:59.862Z,96482.44
2023-03-05T12:50:29.498Z,96477.78
2023-03-05T12:52:58.656Z,96476.50
2023-03-05T12:55:40.856Z,96471.22
2023-03-05T12:58:42.924Z,96468.03
2023-03-05T13:01:18.285Z,96469.53
2023-03-05T13:03:55.830Z,96461.22
2023-03-05T13:06:28.707Z,96448.78
2023-03-05T13:09:16.666Z,96446.59
2023-03-05T13:11:48.352Z,96451.78
2023-03-05T13:14:36.277Z,96446.72
2023-03-05T13:17:29.525Z,96452.97
2023-03-05T13:20:02.141Z,96446.41
2023-03-05T13:22:29.884Z,96437.84
2023-03-05T13:25:17.048Z,96441.31
2023-03-05T13:27:43.609Z,96443.75
2023-03-05T13:30:27.793Z,96446.91
2023-03-05T13:33:00.359Z,96436.97
2023-03-05T13:35:26.989Z,96437.75
2023-03-05T13:37:53.606Z,96445.50
2023-03-05T13:40:20.065Z,96442.31
2023-03-05T13:42:46.613Z,96436.59
2023-03-05T13:45:31.988Z,96441.97
2023-03-05T13:48:01.001Z,96432.94
2023-03-05T13:50:34.319Z,96438.84
2023-03-05T13:53:22.391Z,96428.69
2023-03-05T13:55:50.869Z,96425.41
2023-03-05T13:58:49.593Z,96426.13
2023-03-05T14:01:29.923Z,96418.72
2023-03-05T14:04:26.223Z,96420.63
2023-03-05T14:07:17.651Z,96412.59
2023-03-05T14:09:52.067Z,96415.56
2023-03-05T14:12:30.722Z,96410.22
2023-03-05T14:14:59.705Z,96403.66
2023-03-05T14:17:42.587Z,96403.19
2023-03-05T14:20:21.487Z,96399.22
2023-03-05T14:22:48.708Z,96388.84
2023-03-05T14:25:39.670Z,96400.66
2023-03-05T14:28:18.349Z,96393.56
2023-03-05T14:30:50.892Z,96387.22
2023-03-05T14:33:26.413Z,96391.53
2023-03-05T14:35:53.876Z,96380.53
2023-03-05T14:38:28.644Z,96382.63
2023-03-05T14:40:55.434Z,96377.16
2023-03-05T14:43:21.966Z,96377.41
2023-03-05T14:45:50.506Z,96381.38
2023-03-05T14:48:19.136Z,96371.72
2023-03-05T14:50:51.716Z,96371.09
2023-03-05T14:53:26.038Z,96370.25
2023-03-05T14:55:56.951Z,96360.25
2023-03-05T14:58:35.554Z,96362.41
2023-03-05T15:01:15.518Z,96347.78
2023-03-05T15:03:42.129Z,96352.13
2023-03-05T15:06:34.149Z,96344.34
2023-03-05T15:09:01.613Z,96352.78
2023-03-05T15:11:28.186Z,96349.09
2023-03-05T15:13:54.775Z,96346.63
2023-03-05T15:16:22.538Z,96342.91
2023-03-05T15:18:49.661Z,96343.31
2023-03-05T15:21:16.157Z,96336.72
2023-03-05T15:23:44.500Z,96336.69
2023-03-05T15:26:14.441Z,96330.59
2023-03-05T15:28:42.187Z,96331.78
2023-03-05T15:31:09.357Z,96322.66
2023-03-05T15:33:36.026Z,96330.03
2023-03-05T15:36:02.926Z,96324.44
2023-03-05T15:38:29.438Z,96324.53
2023-03-05T15:41:01.901Z,96320.88
2023-03-05T15:43:30.553Z,96322.38
2023-03-05T15:45:57.153Z,96312.31
2023-03-05T15:48:23.893Z,96310.41
2023-03-05T15:50:52.393Z,96309.03
2023-03-05T15:53:22.493Z,96310.53
2023-03-05T15:55:51.310Z,96312.06
2023-03-05T15:58:18.361Z,96297.66
2023-03-05T16:00:47.277Z,96304.41
2023-03-05T16:03:13.848Z,96306.66
2023-03-05T16:05:40.546Z,96297.38
2023-03-05T16:08:08.015Z,96296.78
2023-03-05T16:10:36.836Z,96290.53
2023-03-05T16:13:07.597Z,96296.06
2023-03-05T16:15:35.263Z,96287.00
2023-03-05T16:18:06.124Z,96289.84
2023-03-05T16:20:32.865Z,96290.59
2023-03-05T16:22:59.693Z,96284.84
2023-03-05T16:25:26.803Z,96284.34
2023-03-05T16:27:53.443Z,96275.78
2023-03-05T16:30:21.816Z,96278.34
2023-03-05T16:32:48.862Z,96268.22
2023-03-05T16:35:17.480Z,96276.88
2023-03-05T16:37:44.269Z,96272.56
2023-03-05T16:40:13.524Z,96277.19
2023-03-05T16:42:40.633Z,96266.53
2023-03-05T16:45:09.242Z,96266.38
2023-03-05T16:47:36.934Z,96267.75
2023-03-05T16:50:03.724Z,96269.38
2023-03-05T16:52:30.821Z,96273.75
2023-03-05T16:54:57.483Z,96271.19
2023-03-05T16:57:25.755Z,96270.94
2023-03-05T16:59:54.174Z,96269.72
2023-03-05T17:02:21.036Z,96271.25
2023-03-05T17:04:48.131Z,96267.16
2023-03-05T17:07:14.823Z,96263.56
2023-03-05T17:09:41.355Z,96265.00
2023-03-05T17:12:08.581Z,96264.47
2023-03-05T17:14:35.355Z,96259.81
2023-03-05T17:17:01.951Z,96260.59
2023-03-05T17:19:28.556Z,96257.63
2023-03-05T17:21:55.032Z,96260.91
2023-03-05T17:24:22.718Z,96261.72
2023-03-05T17:26:50.145Z,96256.81
2023-03-05T17:29:18.848Z,96264.06
2023-03-05T17:31:46.433Z,96268.28
2023-03-05T17:34:14.665Z,96269.09
2023-03-05T17:36:41.206Z,96267.72
2023-03-05T17:39:08.756Z,96264.31
2023-03-05T17:41:35.999Z,96271.97
2023-03-05T17:44:03.551Z,96262.41
2023-03-05T17:46:30.332Z,96270.75
2023-03-05T17:48:56.821Z,96274.03
2023-03-05T17:51:23.367Z,96278.66
2023-03-05T17:53:49.834Z,96275.38
2023-03-05T17:56:22.090Z,96271.16
2023-03-05T17:58:54.673Z,96267.47
2023-03-05T18:01:31.109Z,96274.69
2023-03-05T18:04:03.691Z,96269.34
2023-03-05T18:06:32.238Z,96272.38
2023-03-05T18:08:58.653Z,96268.56
2023-03-05T18:11:25.514Z,96270.84
2023-03-05T18:13:52.322Z,96269.66
2023-03-05T18:16:18.870Z,96266.38
2023-03-05T18:18:47.404Z,96264.59
2023-03-05T18:21:19.135Z,96268.81
2023-03-05T18:23:45.699Z,96267.19
2023-03-05T18:26:12.789Z,96268.56
2023-03-05T18:28:39.624Z,96271.16
2023-03-05T18:31:06.086Z,96270.47
2023-03-05T18:33:33.536Z,96268.16
2023-03-05T18:36:09.684Z,96264.31
2023-03-05T18:38:38.356Z,96268.41
2023-03-05T18:41:06.465Z,96258.72
2023-03-05T18:43:40.584Z,96255.31
2023-03-05T18:46:08.533Z,96249.72
2023-03-05T18:48:36.409Z,96257.91
2023-03-05T18:51:04.268Z,96257.34
2023-03-05T18:53:30.775Z,96246.19
2023-03-05T18:56:04.258Z,96256.69
2023-03-05T18:58:30.711Z,96261.19
2023-03-05T19:00:57.417Z,96262.81
2023-03-05T19:03:23.852Z,96250.81
2023-03-05T19:05:53.417Z,96264.84
2023-03-05T19:08:20.612Z,96253.13
2023-03-05T19:10:48.055Z,96258.72
2023-03-05T19:13:39.567Z,96255.03
2023-03-05T19:16:16.950Z,96247.53
2023-03-05T19:19:15.310Z,96246.41
2023-03-05T19:22:01.503Z,96246.97
2023-03-05T19:24:31.197Z,96246.56
2023-03-05T19:27:00.967Z,96238.09
2023-03-05T19:29:32.819Z,96244.41
2023-03-05T19:31:59.409Z,96240.84
2023-03-05T19:34:25.869Z,96229.53
2023-03-05T19:36:53.276Z,96233.34
2023-03-05T19:39:19.848Z,96237.84
2023-03-05T19:41:46.483Z,96228.28
2023-03-05T19:44:13.021Z,96232.53
2023-03-05T19:46:41.678Z,96231.69
2023-03-05T19:49:08.250Z,96227.47
2023-03-05T19:51:34.684Z,96230.75
2023-03-05T19:54:03.305Z,96229.66
2023-03-05T19:56:30.847Z,96235.00
2023-03-05T19:58:59.488Z,96226.91
2023-03-05T20:01:28.386Z,96232.50
2023-03-05T20:03:58.201Z,96217.25
2023-03-05T20:06:25.991Z,96222.13
2023-03-05T20:08:52.660Z,96215.75
2023-03-05T20:11:21.582Z,96217.50
2023-03-05T20:13:48.385Z,96207.97
2023-03-05T20:16:31.949Z,96204.69
2023-03-05T20:18:59.624Z,96204.69
2023-03-05T20:21:35.025Z,96209.88
2023-03-05T20:24:09.563Z,96203.72
2023-03-05T20:26:38.672Z,96204.81
2023-03-05T20:29:05.775Z,96204.41
2023-03-05T20:31:38.545Z,96203.59
2023-03-05T20:34:07.095Z,96209.59
2023-03-05T20:36:36.988Z,96205.75
2023-03-05T20:39:05.662Z,96205.94
2023-03-05T20:41:34.164Z,96198.81
2023-03-05T20:44:00.720Z,96195.69
2023-03-05T20:46:32.552Z,96198.81
2023-03-05T20:49:00.377Z,96190.78
2023-03-05T20:51:36.186Z,96188.59
2023-03-05T20:54:13.021Z,96189.16
2023-03-05T20:56:39.734Z,96183.16
2023-03-05T20:59:09.057Z,96192.84
2023-03-05T21:01:38.536Z,96182.59
2023-03-05T21:04:07.363Z,96182.72
2023-03-05T21:06:34.898Z,96187.63
2023-03-05T21:09:01.486Z,96187.25
2023-03-05T21:11:28.211Z,96181.09
2023-03-05T21:13:56.719Z,96176.03
2023-03-05T21:16:26.718Z,96186.94
2023-03-05T21:18:57.301Z,96176.59
2023-03-05T21:21:35.950Z,96174.53
2023-03-05T21:24:02.384Z,96175.34
2023-03-05T21:26:28.984Z,96164.31
2023-03-05T21:28:55.688Z,96167.03
2023-03-05T21:31:22.722Z,96164.84
2023-03-05T21:33:49.578Z,96164.19
2023-03-05T21:36:19.105Z,96163.06
2023-03-05T21:38:47.032Z,96164.31
2023-03-05T21:41:13.620Z,96160.09
2023-03-05T21:43:40.298Z,96159.94
2023-03-05T21:46:06.906Z,96145.78
2023-03-05T21:48:33.704Z,96156.13
2023-03-05T21:51:00.245Z,96152.44
2023-03-05T21:53:26.792Z,96138.94
2023-03-05T21:56:11.112Z,96139.75
2023-03-05T21:58:39.604Z,96148.06
2023-03-05T22:01:06.148Z,96139.78
2023-03-05T22:03:33.449Z,96144.53
2023-03-05T22:05:59.965Z,96139.75
2023-03-05T22:08:26.559Z,96140.03
2023-03-05T22:10:53.098Z,96137.84
2023-03-05T22:13:20.700Z,96136.75
2023-03-05T22:15:48.395Z,96126.28
2023-03-05T22:18:17.941Z,96134.84
2023-03-05T22:20:48.134Z,96121.75
2023-03-05T22:23:15.497Z,96125.31
2023-03-05T22:25:42.925Z,96122.84
2023-03-05T22:28:11.455Z,96120.41
2023-03-05T22:30:43.812Z,96116.84
2023-03-05T22:33:11.090Z,96105.81
2023-03-05T22:35:40.221Z,96110.19
2023-03-05T22:38:08.431Z,96107.06
2023-03-05T22:40:37.464Z,96107.84
2023-03-05T22:43:04.477Z,96107.31
2023-03-05T22:45:31.131Z,96097.91
2023-03-05T22:47:57.597Z,96098.59
2023-03-05T22:50:24.341Z,96095.06
2023-03-05T22:52:51.203Z,96095.84
2023-03-05T22:55:18.179Z,96093.84
2023-03-05T22:57:45.110Z,96083.59
2023-03-05T23:00:18.172Z,96079.38
2023-03-05T23:02:45.028Z,96083.59
2023-03-05T23:05:11.863Z,96086.88
2023-03-05T23:07:41.141Z,96080.88
2023-03-05T23:10:27.335Z,96087.00
2023-03-05T23:12:55.406Z,96083.59
2023-03-05T23:15:27.056Z,96072.69
2023-03-05T23:17:54.263Z,96068.88
2023-03-05T23:20:23.347Z,96075.69
2023-03-05T23:22:52.959Z,96075.16
2023-03-05T23:25:20.614Z,96064.13
2023-03-05T23:27:47.579Z,96062.59
2023-03-05T23:30:28.156Z,96067.78
2023-03-05T23:33:19.136Z,96067.38
2023-03-05T23:35:57.760Z,96065.47
2023-03-05T23:38:27.250Z,96063.44
2023-03-05T23:40:56.138Z,96057.44
2023-03-05T23:43:24.815Z,96058.09
2023-03-05T23:45:56.075Z,96053.47
2023-03-05T23:48:23.945Z,96051.16
2023-03-05T23:50:50.769Z,96044.91
2023-03-05T23:53:22.147Z,96048.84
2023-03-05T23:55:49.155Z,96036.31
2023-03-05T23:58:16.800Z,96038.34
